<?xml version="1.0" encoding="utf-8"?>
<gpx xmlns:xsi="http://www.w3.org/2001/XMLSchema-instance" xmlns:xsd="http://www.w3.org/2001/XMLSchema" version="1.1" creator="Shapelink.com" xmlns="http://www.topografix.com/GPX/1/1" xmlns:gpxtpx="http://www.garmin.com/xmlschemas/TrackPointExtension/v1">
  <metadata>
    <name>Løping 5.00 km, 2012-05-26</name>
    <desc></desc>
    <author><name>Mikael Blom</name></author> 
    <time>2012-05-26T04:45:29Z</time>
  </metadata>
  <trk>
    <name>Løping 5.00 km, 2012-05-26</name>
    <trkseg>
      <trkpt lat="59.9796405" lon="17.7382655">
        <ele>0</ele>
        <time>2012-05-26T04:45:29Z</time>
      </trkpt>
      <trkpt lat="59.9794546" lon="17.7384316">
        <ele>0</ele>
        <time>2012-05-26T04:45:33Z</time>
      </trkpt>
      <trkpt lat="59.9793307" lon="17.7384697">
        <ele>0</ele>
        <time>2012-05-26T04:45:38Z</time>
      </trkpt>
      <trkpt lat="59.9793219" lon="17.7384507">
        <ele>0</ele>
        <time>2012-05-26T04:45:39Z</time>
      </trkpt>
      <trkpt lat="59.9792052" lon="17.738459">
        <ele>0</ele>
        <time>2012-05-26T04:45:44Z</time>
      </trkpt>
      <trkpt lat="59.9791298" lon="17.738459">
        <ele>0</ele>
        <time>2012-05-26T04:45:47Z</time>
      </trkpt>
      <trkpt lat="59.9789728" lon="17.7384678">
        <ele>0</ele>
        <time>2012-05-26T04:45:53Z</time>
      </trkpt>
      <trkpt lat="59.9788779" lon="17.7384841">
        <ele>0</ele>
        <time>2012-05-26T04:45:57Z</time>
      </trkpt>
      <trkpt lat="59.9787292" lon="17.7384533">
        <ele>0</ele>
        <time>2012-05-26T04:46:03Z</time>
      </trkpt>
      <trkpt lat="59.9786392" lon="17.7384275">
        <ele>0</ele>
        <time>2012-05-26T04:46:07Z</time>
      </trkpt>
      <trkpt lat="59.9785933" lon="17.7384263">
        <ele>0</ele>
        <time>2012-05-26T04:46:09Z</time>
      </trkpt>
      <trkpt lat="59.9784037" lon="17.7384087">
        <ele>0</ele>
        <time>2012-05-26T04:46:16Z</time>
      </trkpt>
      <trkpt lat="59.9782823" lon="17.7383642">
        <ele>0</ele>
        <time>2012-05-26T04:46:21Z</time>
      </trkpt>
      <trkpt lat="59.9781471" lon="17.7382862">
        <ele>0</ele>
        <time>2012-05-26T04:46:27Z</time>
      </trkpt>
      <trkpt lat="59.9780134" lon="17.7382214">
        <ele>0</ele>
        <time>2012-05-26T04:46:33Z</time>
      </trkpt>
      <trkpt lat="59.9779358" lon="17.7382249">
        <ele>0</ele>
        <time>2012-05-26T04:46:36Z</time>
      </trkpt>
      <trkpt lat="59.9777955" lon="17.7382851">
        <ele>0</ele>
        <time>2012-05-26T04:46:41Z</time>
      </trkpt>
      <trkpt lat="59.9776639" lon="17.7383581">
        <ele>0</ele>
        <time>2012-05-26T04:46:46Z</time>
      </trkpt>
      <trkpt lat="59.9775458" lon="17.7384337">
        <ele>0</ele>
        <time>2012-05-26T04:46:51Z</time>
      </trkpt>
      <trkpt lat="59.9774363" lon="17.7385004">
        <ele>0</ele>
        <time>2012-05-26T04:46:56Z</time>
      </trkpt>
      <trkpt lat="59.9773427" lon="17.7385833">
        <ele>0</ele>
        <time>2012-05-26T04:47:00Z</time>
      </trkpt>
      <trkpt lat="59.9772157" lon="17.7386658">
        <ele>0</ele>
        <time>2012-05-26T04:47:05Z</time>
      </trkpt>
      <trkpt lat="59.9771156" lon="17.7387239">
        <ele>0</ele>
        <time>2012-05-26T04:47:09Z</time>
      </trkpt>
      <trkpt lat="59.9770169" lon="17.7387606">
        <ele>0</ele>
        <time>2012-05-26T04:47:13Z</time>
      </trkpt>
      <trkpt lat="59.9768915" lon="17.7388429">
        <ele>0</ele>
        <time>2012-05-26T04:47:18Z</time>
      </trkpt>
      <trkpt lat="59.9768054" lon="17.7389156">
        <ele>0</ele>
        <time>2012-05-26T04:47:22Z</time>
      </trkpt>
      <trkpt lat="59.9767242" lon="17.7390548">
        <ele>0</ele>
        <time>2012-05-26T04:47:26Z</time>
      </trkpt>
      <trkpt lat="59.9766475" lon="17.7392578">
        <ele>0</ele>
        <time>2012-05-26T04:47:32Z</time>
      </trkpt>
      <trkpt lat="59.9765776" lon="17.7394827">
        <ele>0</ele>
        <time>2012-05-26T04:47:37Z</time>
      </trkpt>
      <trkpt lat="59.97652" lon="17.7396792">
        <ele>0</ele>
        <time>2012-05-26T04:47:42Z</time>
      </trkpt>
      <trkpt lat="59.9764548" lon="17.7398875">
        <ele>0</ele>
        <time>2012-05-26T04:47:47Z</time>
      </trkpt>
      <trkpt lat="59.9763806" lon="17.7401242">
        <ele>0</ele>
        <time>2012-05-26T04:47:53Z</time>
      </trkpt>
      <trkpt lat="59.9763479" lon="17.7402586">
        <ele>0</ele>
        <time>2012-05-26T04:47:57Z</time>
      </trkpt>
      <trkpt lat="59.9762345" lon="17.7405934">
        <ele>0</ele>
        <time>2012-05-26T04:48:03Z</time>
      </trkpt>
      <trkpt lat="59.97612" lon="17.7409038">
        <ele>7.34717</ele>
        <time>2012-05-26T04:48:06Z</time>
      </trkpt>
      <trkpt lat="59.9760496" lon="17.7411284">
        <ele>13.1151</ele>
        <time>2012-05-26T04:48:09Z</time>
      </trkpt>
      <trkpt lat="59.9759544" lon="17.7414327">
        <ele>17.9218</ele>
        <time>2012-05-26T04:48:14Z</time>
      </trkpt>
      <trkpt lat="59.9758139" lon="17.7419004">
        <ele>27.5349</ele>
        <time>2012-05-26T04:48:22Z</time>
      </trkpt>
      <trkpt lat="59.9757151" lon="17.7422007">
        <ele>34.7449</ele>
        <time>2012-05-26T04:48:27Z</time>
      </trkpt>
      <trkpt lat="59.9756389" lon="17.742439">
        <ele>41.9547</ele>
        <time>2012-05-26T04:48:31Z</time>
      </trkpt>
      <trkpt lat="59.9755586" lon="17.7427519">
        <ele>47.2418</ele>
        <time>2012-05-26T04:48:37Z</time>
      </trkpt>
      <trkpt lat="59.9755095" lon="17.7429387">
        <ele>50.6066</ele>
        <time>2012-05-26T04:48:41Z</time>
      </trkpt>
      <trkpt lat="59.9754522" lon="17.7431373">
        <ele>53.4905</ele>
        <time>2012-05-26T04:48:46Z</time>
      </trkpt>
      <trkpt lat="59.9753852" lon="17.7433446">
        <ele>53.0098</ele>
        <time>2012-05-26T04:48:51Z</time>
      </trkpt>
      <trkpt lat="59.9753203" lon="17.7436249">
        <ele>51.5679</ele>
        <time>2012-05-26T04:48:58Z</time>
      </trkpt>
      <trkpt lat="59.9752587" lon="17.7438618">
        <ele>55.4131</ele>
        <time>2012-05-26T04:49:03Z</time>
      </trkpt>
      <trkpt lat="59.9752217" lon="17.7440932">
        <ele>56.8551</ele>
        <time>2012-05-26T04:49:08Z</time>
      </trkpt>
      <trkpt lat="59.9751668" lon="17.7443829">
        <ele>59.7391</ele>
        <time>2012-05-26T04:49:14Z</time>
      </trkpt>
      <trkpt lat="59.9751249" lon="17.7446244">
        <ele>58.2971</ele>
        <time>2012-05-26T04:49:20Z</time>
      </trkpt>
      <trkpt lat="59.9750815" lon="17.7448507">
        <ele>56.3745</ele>
        <time>2012-05-26T04:49:26Z</time>
      </trkpt>
      <trkpt lat="59.9750406" lon="17.7450104">
        <ele>53.4905</ele>
        <time>2012-05-26T04:49:31Z</time>
      </trkpt>
      <trkpt lat="59.9749815" lon="17.7452069">
        <ele>52.0486</ele>
        <time>2012-05-26T04:49:37Z</time>
      </trkpt>
      <trkpt lat="59.9749363" lon="17.7453627">
        <ele>48.2034</ele>
        <time>2012-05-26T04:49:43Z</time>
      </trkpt>
      <trkpt lat="59.9748836" lon="17.7455176">
        <ele>43.3966</ele>
        <time>2012-05-26T04:49:49Z</time>
      </trkpt>
      <trkpt lat="59.9748177" lon="17.7456984">
        <ele>40.5128</ele>
        <time>2012-05-26T04:49:55Z</time>
      </trkpt>
      <trkpt lat="59.9748184" lon="17.7457065">
        <ele>30.8995</ele>
        <time>2012-05-26T04:50:00Z</time>
      </trkpt>
      <trkpt lat="59.9747287" lon="17.7458342">
        <ele>28.9769</ele>
        <time>2012-05-26T04:50:06Z</time>
      </trkpt>
      <trkpt lat="59.9746532" lon="17.7459828">
        <ele>27.5349</ele>
        <time>2012-05-26T04:50:11Z</time>
      </trkpt>
      <trkpt lat="59.9745189" lon="17.7462046">
        <ele>31.8607</ele>
        <time>2012-05-26T04:50:17Z</time>
      </trkpt>
      <trkpt lat="59.9743802" lon="17.7464158">
        <ele>34.7449</ele>
        <time>2012-05-26T04:50:23Z</time>
      </trkpt>
      <trkpt lat="59.9742616" lon="17.746537">
        <ele>31.3801</ele>
        <time>2012-05-26T04:50:29Z</time>
      </trkpt>
      <trkpt lat="59.9741682" lon="17.7466318">
        <ele>29.9381</ele>
        <time>2012-05-26T04:50:34Z</time>
      </trkpt>
      <trkpt lat="59.9740673" lon="17.7467422">
        <ele>30.4188</ele>
        <time>2012-05-26T04:50:39Z</time>
      </trkpt>
      <trkpt lat="59.9739477" lon="17.7469181">
        <ele>31.8607</ele>
        <time>2012-05-26T04:50:45Z</time>
      </trkpt>
      <trkpt lat="59.9738798" lon="17.7469825">
        <ele>30.4188</ele>
        <time>2012-05-26T04:50:51Z</time>
      </trkpt>
      <trkpt lat="59.9737885" lon="17.7470784">
        <ele>28.4962</ele>
        <time>2012-05-26T04:50:56Z</time>
      </trkpt>
      <trkpt lat="59.9736565" lon="17.7472088">
        <ele>28.0155</ele>
        <time>2012-05-26T04:51:01Z</time>
      </trkpt>
      <trkpt lat="59.9735689" lon="17.7473095">
        <ele>26.0929</ele>
        <time>2012-05-26T04:51:05Z</time>
      </trkpt>
      <trkpt lat="59.9734395" lon="17.7474547">
        <ele>26.0929</ele>
        <time>2012-05-26T04:51:10Z</time>
      </trkpt>
      <trkpt lat="59.9733354" lon="17.7475506">
        <ele>24.651</ele>
        <time>2012-05-26T04:51:15Z</time>
      </trkpt>
      <trkpt lat="59.9732639" lon="17.7476145">
        <ele>23.209</ele>
        <time>2012-05-26T04:51:19Z</time>
      </trkpt>
      <trkpt lat="59.9731473" lon="17.7477635">
        <ele>23.6896</ele>
        <time>2012-05-26T04:51:24Z</time>
      </trkpt>
      <trkpt lat="59.97301" lon="17.7480051">
        <ele>28.4962</ele>
        <time>2012-05-26T04:51:29Z</time>
      </trkpt>
      <trkpt lat="59.9729612" lon="17.7480919">
        <ele>30.4188</ele>
        <time>2012-05-26T04:51:31Z</time>
      </trkpt>
      <trkpt lat="59.9729358" lon="17.7481346">
        <ele>31.3801</ele>
        <time>2012-05-26T04:51:32Z</time>
      </trkpt>
      <trkpt lat="59.9728753" lon="17.7480724">
        <ele>33.7834</ele>
        <time>2012-05-26T04:51:37Z</time>
      </trkpt>
      <trkpt lat="59.9729946" lon="17.7479671">
        <ele>36.1868</ele>
        <time>2012-05-26T04:51:41Z</time>
      </trkpt>
      <trkpt lat="59.9730448" lon="17.7479466">
        <ele>43.3966</ele>
        <time>2012-05-26T04:51:46Z</time>
      </trkpt>
      <trkpt lat="59.9731279" lon="17.7478283">
        <ele>42.916</ele>
        <time>2012-05-26T04:51:50Z</time>
      </trkpt>
      <trkpt lat="59.9732411" lon="17.7476611">
        <ele>42.916</ele>
        <time>2012-05-26T04:51:55Z</time>
      </trkpt>
      <trkpt lat="59.9733287" lon="17.7475851">
        <ele>42.916</ele>
        <time>2012-05-26T04:51:59Z</time>
      </trkpt>
      <trkpt lat="59.9734538" lon="17.7474402">
        <ele>43.3966</ele>
        <time>2012-05-26T04:52:04Z</time>
      </trkpt>
      <trkpt lat="59.9735549" lon="17.7473347">
        <ele>43.8773</ele>
        <time>2012-05-26T04:52:08Z</time>
      </trkpt>
      <trkpt lat="59.9736139" lon="17.7472461">
        <ele>43.8773</ele>
        <time>2012-05-26T04:52:11Z</time>
      </trkpt>
      <trkpt lat="59.9736461" lon="17.7472172">
        <ele>44.358</ele>
        <time>2012-05-26T04:52:15Z</time>
      </trkpt>
      <trkpt lat="59.9736974" lon="17.7472248">
        <ele>43.8773</ele>
        <time>2012-05-26T04:52:20Z</time>
      </trkpt>
      <trkpt lat="59.973734" lon="17.7471906">
        <ele>44.358</ele>
        <time>2012-05-26T04:52:23Z</time>
      </trkpt>
      <trkpt lat="59.9738667" lon="17.7470008">
        <ele>44.358</ele>
        <time>2012-05-26T04:52:28Z</time>
      </trkpt>
      <trkpt lat="59.9739575" lon="17.7468808">
        <ele>45.3192</ele>
        <time>2012-05-26T04:52:32Z</time>
      </trkpt>
      <trkpt lat="59.9740744" lon="17.7466945">
        <ele>45.7999</ele>
        <time>2012-05-26T04:52:37Z</time>
      </trkpt>
      <trkpt lat="59.9742217" lon="17.7465265">
        <ele>46.2806</ele>
        <time>2012-05-26T04:52:43Z</time>
      </trkpt>
      <trkpt lat="59.9743161" lon="17.7464182">
        <ele>45.7999</ele>
        <time>2012-05-26T04:52:47Z</time>
      </trkpt>
      <trkpt lat="59.9744921" lon="17.7460896">
        <ele>37.6287</ele>
        <time>2012-05-26T04:52:52Z</time>
      </trkpt>
      <trkpt lat="59.9746318" lon="17.745878">
        <ele>36.6675</ele>
        <time>2012-05-26T04:52:58Z</time>
      </trkpt>
      <trkpt lat="59.9747364" lon="17.7456507">
        <ele>36.6675</ele>
        <time>2012-05-26T04:53:04Z</time>
      </trkpt>
      <trkpt lat="59.9748178" lon="17.7454699">
        <ele>36.1868</ele>
        <time>2012-05-26T04:53:09Z</time>
      </trkpt>
      <trkpt lat="59.9749106" lon="17.7452616">
        <ele>34.7449</ele>
        <time>2012-05-26T04:53:15Z</time>
      </trkpt>
      <trkpt lat="59.974983" lon="17.7449821">
        <ele>35.7061</ele>
        <time>2012-05-26T04:53:21Z</time>
      </trkpt>
      <trkpt lat="59.9750679" lon="17.7447369">
        <ele>36.1868</ele>
        <time>2012-05-26T04:53:27Z</time>
      </trkpt>
      <trkpt lat="59.9751368" lon="17.7444667">
        <ele>36.1868</ele>
        <time>2012-05-26T04:53:33Z</time>
      </trkpt>
      <trkpt lat="59.9752024" lon="17.7442146">
        <ele>36.6675</ele>
        <time>2012-05-26T04:53:38Z</time>
      </trkpt>
      <trkpt lat="59.9752823" lon="17.7438967">
        <ele>36.6675</ele>
        <time>2012-05-26T04:53:45Z</time>
      </trkpt>
      <trkpt lat="59.9753235" lon="17.7436237">
        <ele>36.1868</ele>
        <time>2012-05-26T04:53:51Z</time>
      </trkpt>
      <trkpt lat="59.9753634" lon="17.7434396">
        <ele>35.7061</ele>
        <time>2012-05-26T04:53:55Z</time>
      </trkpt>
      <trkpt lat="59.9754142" lon="17.7432167">
        <ele>35.2255</ele>
        <time>2012-05-26T04:54:00Z</time>
      </trkpt>
      <trkpt lat="59.9755037" lon="17.7429747">
        <ele>33.7834</ele>
        <time>2012-05-26T04:54:06Z</time>
      </trkpt>
      <trkpt lat="59.9755533" lon="17.7427414">
        <ele>33.7834</ele>
        <time>2012-05-26T04:54:11Z</time>
      </trkpt>
      <trkpt lat="59.9756274" lon="17.7424722">
        <ele>32.3416</ele>
        <time>2012-05-26T04:54:17Z</time>
      </trkpt>
      <trkpt lat="59.9756975" lon="17.7421138">
        <ele>34.2642</ele>
        <time>2012-05-26T04:54:24Z</time>
      </trkpt>
      <trkpt lat="59.9757648" lon="17.7418442">
        <ele>35.2255</ele>
        <time>2012-05-26T04:54:29Z</time>
      </trkpt>
      <trkpt lat="59.9758234" lon="17.7415355">
        <ele>35.2255</ele>
        <time>2012-05-26T04:54:35Z</time>
      </trkpt>
      <trkpt lat="59.9758576" lon="17.7413374">
        <ele>36.1868</ele>
        <time>2012-05-26T04:54:39Z</time>
      </trkpt>
      <trkpt lat="59.9759315" lon="17.741121">
        <ele>36.6675</ele>
        <time>2012-05-26T04:54:44Z</time>
      </trkpt>
      <trkpt lat="59.9759905" lon="17.7409367">
        <ele>35.7061</ele>
        <time>2012-05-26T04:54:48Z</time>
      </trkpt>
      <trkpt lat="59.9760527" lon="17.7407276">
        <ele>36.1868</ele>
        <time>2012-05-26T04:54:53Z</time>
      </trkpt>
      <trkpt lat="59.9760994" lon="17.7404567">
        <ele>35.7061</ele>
        <time>2012-05-26T04:54:59Z</time>
      </trkpt>
      <trkpt lat="59.9761936" lon="17.7402549">
        <ele>34.2642</ele>
        <time>2012-05-26T04:55:04Z</time>
      </trkpt>
      <trkpt lat="59.9762593" lon="17.7400754">
        <ele>33.7834</ele>
        <time>2012-05-26T04:55:08Z</time>
      </trkpt>
      <trkpt lat="59.9763237" lon="17.7398334">
        <ele>33.7834</ele>
        <time>2012-05-26T04:55:13Z</time>
      </trkpt>
      <trkpt lat="59.9764175" lon="17.7395828">
        <ele>33.7834</ele>
        <time>2012-05-26T04:55:19Z</time>
      </trkpt>
      <trkpt lat="59.976523" lon="17.7394351">
        <ele>33.3029</ele>
        <time>2012-05-26T04:55:24Z</time>
      </trkpt>
      <trkpt lat="59.9766328" lon="17.7393326">
        <ele>33.7834</ele>
        <time>2012-05-26T04:55:29Z</time>
      </trkpt>
      <trkpt lat="59.9767848" lon="17.739231">
        <ele>34.7449</ele>
        <time>2012-05-26T04:55:35Z</time>
      </trkpt>
      <trkpt lat="59.9768505" lon="17.7391643">
        <ele>35.7061</ele>
        <time>2012-05-26T04:55:39Z</time>
      </trkpt>
      <trkpt lat="59.9769806" lon="17.7391211">
        <ele>35.2255</ele>
        <time>2012-05-26T04:55:44Z</time>
      </trkpt>
      <trkpt lat="59.9770993" lon="17.7390398">
        <ele>36.1868</ele>
        <time>2012-05-26T04:55:49Z</time>
      </trkpt>
      <trkpt lat="59.9772493" lon="17.7389863">
        <ele>35.7061</ele>
        <time>2012-05-26T04:55:55Z</time>
      </trkpt>
      <trkpt lat="59.9773654" lon="17.7389047">
        <ele>36.6675</ele>
        <time>2012-05-26T04:56:00Z</time>
      </trkpt>
      <trkpt lat="59.9775048" lon="17.7388409">
        <ele>38.5901</ele>
        <time>2012-05-26T04:56:06Z</time>
      </trkpt>
      <trkpt lat="59.9776478" lon="17.7388077">
        <ele>40.5128</ele>
        <time>2012-05-26T04:56:11Z</time>
      </trkpt>
      <trkpt lat="59.9777791" lon="17.7388224">
        <ele>41.474</ele>
        <time>2012-05-26T04:56:16Z</time>
      </trkpt>
      <trkpt lat="59.9779067" lon="17.7388692">
        <ele>41.474</ele>
        <time>2012-05-26T04:56:21Z</time>
      </trkpt>
      <trkpt lat="59.9780426" lon="17.7389789">
        <ele>41.474</ele>
        <time>2012-05-26T04:56:27Z</time>
      </trkpt>
      <trkpt lat="59.9781612" lon="17.7390545">
        <ele>40.9934</ele>
        <time>2012-05-26T04:56:33Z</time>
      </trkpt>
      <trkpt lat="59.9783139" lon="17.7390809">
        <ele>42.916</ele>
        <time>2012-05-26T04:56:39Z</time>
      </trkpt>
      <trkpt lat="59.9784657" lon="17.7390943">
        <ele>43.3966</ele>
        <time>2012-05-26T04:56:44Z</time>
      </trkpt>
      <trkpt lat="59.978589" lon="17.739134">
        <ele>42.4354</ele>
        <time>2012-05-26T04:56:49Z</time>
      </trkpt>
      <trkpt lat="59.9787126" lon="17.7391343">
        <ele>41.9547</ele>
        <time>2012-05-26T04:56:53Z</time>
      </trkpt>
      <trkpt lat="59.9788502" lon="17.7391666">
        <ele>42.4354</ele>
        <time>2012-05-26T04:56:58Z</time>
      </trkpt>
      <trkpt lat="59.9790035" lon="17.7393111">
        <ele>41.9547</ele>
        <time>2012-05-26T04:57:04Z</time>
      </trkpt>
      <trkpt lat="59.9790599" lon="17.7395004">
        <ele>40.9934</ele>
        <time>2012-05-26T04:57:08Z</time>
      </trkpt>
      <trkpt lat="59.9790661" lon="17.7395578">
        <ele>40.0321</ele>
        <time>2012-05-26T04:57:09Z</time>
      </trkpt>
    </trkseg>
  </trk>
</gpx>